sensor_id;sensor_type;location;lat;lon;timestamp;P1;durP1;ratioP1;P2;durP2;ratioP2
34060;SDS011;20336;-33.424;-70.638;2022-07-03T00:01:55;15.93;;;8.57;;
34060;SDS011;20336;-33.424;-70.638;2022-07-03T00:04:22;18.07;;;8.87;;
34060;SDS011;20336;-33.424;-70.638;2022-07-03T00:06:49;19.60;;;9.97;;
34060;SDS011;20336;-33.424;-70.638;2022-07-03T00:09:18;28.20;;;13.77;;
34060;SDS011;20336;-33.424;-70.638;2022-07-03T00:11:45;19.67;;;10.10;;
34060;SDS011;20336;-33.424;-70.638;2022-07-03T00:14:12;15.73;;;9.57;;
34060;SDS011;20336;-33.424;-70.638;2022-07-03T00:16:39;19.63;;;10.50;;
34060;SDS011;20336;-33.424;-70.638;2022-07-03T00:19:06;19.37;;;11.90;;
34060;SDS011;20336;-33.424;-70.638;2022-07-03T00:21:40;21.13;;;12.17;;
34060;SDS011;20336;-33.424;-70.638;2022-07-03T00:25:16;21.50;;;11.93;;
34060;SDS011;20336;-33.424;-70.638;2022-07-03T00:27:16;25.00;;;12.87;;
34060;SDS011;20336;-33.424;-70.638;2022-07-03T00:29:44;29.27;;;14.27;;
34060;SDS011;20336;-33.424;-70.638;2022-07-03T00:32:19;24.93;;;13.13;;
34060;SDS011;20336;-33.424;-70.638;2022-07-03T00:34:50;27.13;;;14.37;;
34060;SDS011;20336;-33.424;-70.638;2022-07-03T00:37:18;25.67;;;13.27;;
34060;SDS011;20336;-33.424;-70.638;2022-07-03T00:39:45;31.70;;;14.97;;
34060;SDS011;20336;-33.424;-70.638;2022-07-03T00:42:16;26.53;;;13.37;;
34060;SDS011;20336;-33.424;-70.638;2022-07-03T00:44:44;26.47;;;13.57;;
34060;SDS011;20336;-33.424;-70.638;2022-07-03T00:47:14;24.17;;;13.03;;
34060;SDS011;20336;-33.424;-70.638;2022-07-03T00:49:43;21.50;;;13.27;;
34060;SDS011;20336;-33.424;-70.638;2022-07-03T00:52:15;21.67;;;12.73;;
34060;SDS011;20336;-33.424;-70.638;2022-07-03T00:54:45;22.10;;;11.73;;
34060;SDS011;20336;-33.424;-70.638;2022-07-03T00:57:22;22.90;;;12.67;;
34060;SDS011;20336;-33.424;-70.638;2022-07-03T00:59:50;21.43;;;13.13;;
34060;SDS011;20336;-33.424;-70.638;2022-07-03T01:02:27;21.43;;;12.23;;
34060;SDS011;20336;-33.424;-70.638;2022-07-03T01:05:27;19.43;;;11.73;;
34060;SDS011;20336;-33.424;-70.638;2022-07-03T01:13:17;28.93;;;13.47;;
34060;SDS011;20336;-33.424;-70.638;2022-07-03T01:18:21;31.40;;;16.13;;
34060;SDS011;20336;-33.424;-70.638;2022-07-03T01:20:52;22.73;;;13.90;;
34060;SDS011;20336;-33.424;-70.638;2022-07-03T01:23:37;23.90;;;12.50;;
34060;SDS011;20336;-33.424;-70.638;2022-07-03T01:26:10;21.73;;;12.97;;
34060;SDS011;20336;-33.424;-70.638;2022-07-03T01:28:41;21.20;;;12.83;;
34060;SDS011;20336;-33.424;-70.638;2022-07-03T01:31:13;28.83;;;13.03;;
34060;SDS011;20336;-33.424;-70.638;2022-07-03T01:33:50;20.17;;;12.80;;
34060;SDS011;20336;-33.424;-70.638;2022-07-03T01:36:17;22.20;;;12.90;;
34060;SDS011;20336;-33.424;-70.638;2022-07-03T01:38:47;26.50;;;13.50;;
34060;SDS011;20336;-33.424;-70.638;2022-07-03T01:41:15;24.20;;;13.07;;
34060;SDS011;20336;-33.424;-70.638;2022-07-03T01:46:15;19.87;;;12.40;;
34060;SDS011;20336;-33.424;-70.638;2022-07-03T01:48:44;21.63;;;12.33;;
34060;SDS011;20336;-33.424;-70.638;2022-07-03T01:51:14;24.90;;;12.67;;
34060;SDS011;20336;-33.424;-70.638;2022-07-03T01:53:46;24.57;;;13.57;;
34060;SDS011;20336;-33.424;-70.638;2022-07-03T01:56:14;20.77;;;12.37;;
34060;SDS011;20336;-33.424;-70.638;2022-07-03T01:58:42;25.37;;;13.93;;
34060;SDS011;20336;-33.424;-70.638;2022-07-03T02:01:22;21.30;;;12.93;;
34060;SDS011;20336;-33.424;-70.638;2022-07-03T02:07:06;22.90;;;11.10;;
34060;SDS011;20336;-33.424;-70.638;2022-07-03T02:09:44;19.40;;;11.40;;
34060;SDS011;20336;-33.424;-70.638;2022-07-03T02:12:19;18.13;;;10.80;;
34060;SDS011;20336;-33.424;-70.638;2022-07-03T02:14:54;15.73;;;8.73;;
34060;SDS011;20336;-33.424;-70.638;2022-07-03T02:17:35;15.77;;;8.60;;
34060;SDS011;20336;-33.424;-70.638;2022-07-03T02:20:05;15.57;;;7.97;;
34060;SDS011;20336;-33.424;-70.638;2022-07-03T02:22:35;14.83;;;7.73;;
34060;SDS011;20336;-33.424;-70.638;2022-07-03T02:25:08;12.83;;;7.67;;
34060;SDS011;20336;-33.424;-70.638;2022-07-03T02:27:56;14.70;;;7.83;;
34060;SDS011;20336;-33.424;-70.638;2022-07-03T02:30:44;13.60;;;7.37;;
34060;SDS011;20336;-33.424;-70.638;2022-07-03T02:33:22;15.83;;;8.83;;
34060;SDS011;20336;-33.424;-70.638;2022-07-03T02:35:53;15.77;;;9.73;;
34060;SDS011;20336;-33.424;-70.638;2022-07-03T02:38:25;12.50;;;8.03;;
34060;SDS011;20336;-33.424;-70.638;2022-07-03T02:41:03;15.57;;;8.67;;
34060;SDS011;20336;-33.424;-70.638;2022-07-03T02:46:49;15.30;;;9.30;;
34060;SDS011;20336;-33.424;-70.638;2022-07-03T03:04:07;22.80;;;12.73;;
34060;SDS011;20336;-33.424;-70.638;2022-07-03T03:06:37;23.97;;;13.90;;
34060;SDS011;20336;-33.424;-70.638;2022-07-03T03:09:14;27.67;;;14.30;;
34060;SDS011;20336;-33.424;-70.638;2022-07-03T03:11:46;21.60;;;13.07;;
34060;SDS011;20336;-33.424;-70.638;2022-07-03T03:14:15;29.43;;;15.27;;
34060;SDS011;20336;-33.424;-70.638;2022-07-03T03:16:52;21.37;;;13.67;;
34060;SDS011;20336;-33.424;-70.638;2022-07-03T03:19:20;26.87;;;14.93;;
34060;SDS011;20336;-33.424;-70.638;2022-07-03T03:21:57;27.57;;;15.10;;
34060;SDS011;20336;-33.424;-70.638;2022-07-03T03:24:25;29.43;;;16.27;;
34060;SDS011;20336;-33.424;-70.638;2022-07-03T03:26:52;30.97;;;14.30;;
34060;SDS011;20336;-33.424;-70.638;2022-07-03T03:29:19;22.60;;;12.03;;
34060;SDS011;20336;-33.424;-70.638;2022-07-03T03:31:46;21.70;;;11.37;;
34060;SDS011;20336;-33.424;-70.638;2022-07-03T03:34:13;25.33;;;13.60;;
34060;SDS011;20336;-33.424;-70.638;2022-07-03T03:36:41;24.37;;;14.47;;
34060;SDS011;20336;-33.424;-70.638;2022-07-03T03:39:08;26.03;;;16.23;;
34060;SDS011;20336;-33.424;-70.638;2022-07-03T03:41:39;29.17;;;13.97;;
34060;SDS011;20336;-33.424;-70.638;2022-07-03T03:44:06;27.20;;;15.30;;
34060;SDS011;20336;-33.424;-70.638;2022-07-03T03:46:33;27.70;;;15.60;;
34060;SDS011;20336;-33.424;-70.638;2022-07-03T03:49:00;25.03;;;14.30;;
34060;SDS011;20336;-33.424;-70.638;2022-07-03T03:51:27;25.07;;;13.87;;
34060;SDS011;20336;-33.424;-70.638;2022-07-03T03:53:53;30.80;;;16.87;;
34060;SDS011;20336;-33.424;-70.638;2022-07-03T03:56:20;30.97;;;15.33;;
34060;SDS011;20336;-33.424;-70.638;2022-07-03T03:58:47;28.20;;;15.73;;
34060;SDS011;20336;-33.424;-70.638;2022-07-03T04:01:14;22.23;;;13.80;;
34060;SDS011;20336;-33.424;-70.638;2022-07-03T04:03:41;22.13;;;12.50;;
34060;SDS011;20336;-33.424;-70.638;2022-07-03T04:06:08;21.90;;;13.33;;
34060;SDS011;20336;-33.424;-70.638;2022-07-03T04:08:35;19.27;;;12.17;;
34060;SDS011;20336;-33.424;-70.638;2022-07-03T04:11:02;21.47;;;11.13;;
34060;SDS011;20336;-33.424;-70.638;2022-07-03T04:13:29;22.07;;;12.53;;
34060;SDS011;20336;-33.424;-70.638;2022-07-03T04:15:56;20.57;;;12.07;;
34060;SDS011;20336;-33.424;-70.638;2022-07-03T04:18:23;19.73;;;11.83;;
34060;SDS011;20336;-33.424;-70.638;2022-07-03T04:20:49;18.83;;;11.93;;
34060;SDS011;20336;-33.424;-70.638;2022-07-03T04:23:17;20.77;;;11.97;;
34060;SDS011;20336;-33.424;-70.638;2022-07-03T04:25:44;23.13;;;13.50;;
34060;SDS011;20336;-33.424;-70.638;2022-07-03T04:28:11;24.77;;;13.60;;
34060;SDS011;20336;-33.424;-70.638;2022-07-03T04:30:38;24.87;;;14.17;;
34060;SDS011;20336;-33.424;-70.638;2022-07-03T04:33:05;21.03;;;12.73;;
34060;SDS011;20336;-33.424;-70.638;2022-07-03T04:35:32;21.60;;;13.80;;
34060;SDS011;20336;-33.424;-70.638;2022-07-03T04:37:59;20.73;;;13.63;;
34060;SDS011;20336;-33.424;-70.638;2022-07-03T04:40:26;23.17;;;13.87;;
34060;SDS011;20336;-33.424;-70.638;2022-07-03T04:42:53;23.30;;;13.83;;
34060;SDS011;20336;-33.424;-70.638;2022-07-03T04:45:20;23.97;;;13.73;;
34060;SDS011;20336;-33.424;-70.638;2022-07-03T04:47:47;21.63;;;14.57;;
34060;SDS011;20336;-33.424;-70.638;2022-07-03T04:50:13;26.03;;;15.30;;
34060;SDS011;20336;-33.424;-70.638;2022-07-03T04:52:40;19.97;;;12.10;;
34060;SDS011;20336;-33.424;-70.638;2022-07-03T04:55:11;18.90;;;11.77;;
34060;SDS011;20336;-33.424;-70.638;2022-07-03T04:57:39;19.33;;;10.43;;
34060;SDS011;20336;-33.424;-70.638;2022-07-03T05:00:07;18.27;;;9.37;;
34060;SDS011;20336;-33.424;-70.638;2022-07-03T05:02:34;14.10;;;8.67;;
34060;SDS011;20336;-33.424;-70.638;2022-07-03T05:05:02;17.63;;;9.53;;
34060;SDS011;20336;-33.424;-70.638;2022-07-03T05:07:29;18.70;;;8.90;;
34060;SDS011;20336;-33.424;-70.638;2022-07-03T05:09:56;12.53;;;8.47;;
34060;SDS011;20336;-33.424;-70.638;2022-07-03T05:12:23;14.60;;;8.93;;
34060;SDS011;20336;-33.424;-70.638;2022-07-03T05:14:51;14.57;;;9.27;;
34060;SDS011;20336;-33.424;-70.638;2022-07-03T05:17:18;13.20;;;8.40;;
34060;SDS011;20336;-33.424;-70.638;2022-07-03T05:19:45;15.13;;;8.90;;
34060;SDS011;20336;-33.424;-70.638;2022-07-03T05:22:12;16.60;;;9.60;;
34060;SDS011;20336;-33.424;-70.638;2022-07-03T05:24:39;15.67;;;9.83;;
34060;SDS011;20336;-33.424;-70.638;2022-07-03T05:27:06;15.13;;;9.57;;
34060;SDS011;20336;-33.424;-70.638;2022-07-03T05:29:33;18.23;;;9.90;;
34060;SDS011;20336;-33.424;-70.638;2022-07-03T05:32:00;19.27;;;10.97;;
34060;SDS011;20336;-33.424;-70.638;2022-07-03T05:34:26;16.23;;;9.30;;
34060;SDS011;20336;-33.424;-70.638;2022-07-03T05:36:53;20.33;;;10.40;;
34060;SDS011;20336;-33.424;-70.638;2022-07-03T05:39:22;17.97;;;10.27;;
34060;SDS011;20336;-33.424;-70.638;2022-07-03T05:41:58;18.53;;;10.60;;
34060;SDS011;20336;-33.424;-70.638;2022-07-03T05:44:25;19.93;;;10.90;;
34060;SDS011;20336;-33.424;-70.638;2022-07-03T05:46:52;20.50;;;10.83;;
34060;SDS011;20336;-33.424;-70.638;2022-07-03T05:49:18;21.73;;;10.80;;
34060;SDS011;20336;-33.424;-70.638;2022-07-03T05:51:45;19.27;;;10.93;;
34060;SDS011;20336;-33.424;-70.638;2022-07-03T05:54:15;19.83;;;11.77;;
34060;SDS011;20336;-33.424;-70.638;2022-07-03T05:56:42;22.17;;;13.63;;
34060;SDS011;20336;-33.424;-70.638;2022-07-03T05:59:09;19.20;;;12.23;;
34060;SDS011;20336;-33.424;-70.638;2022-07-03T06:01:36;21.10;;;11.27;;
34060;SDS011;20336;-33.424;-70.638;2022-07-03T06:04:03;19.33;;;11.97;;
34060;SDS011;20336;-33.424;-70.638;2022-07-03T06:06:30;18.87;;;11.97;;
34060;SDS011;20336;-33.424;-70.638;2022-07-03T06:08:57;18.90;;;11.70;;
34060;SDS011;20336;-33.424;-70.638;2022-07-03T06:11:24;21.60;;;12.17;;
34060;SDS011;20336;-33.424;-70.638;2022-07-03T06:13:50;23.30;;;12.63;;
34060;SDS011;20336;-33.424;-70.638;2022-07-03T06:16:17;21.17;;;11.63;;
34060;SDS011;20336;-33.424;-70.638;2022-07-03T06:18:44;21.67;;;12.87;;
34060;SDS011;20336;-33.424;-70.638;2022-07-03T06:21:11;22.40;;;11.77;;
34060;SDS011;20336;-33.424;-70.638;2022-07-03T06:23:38;20.07;;;11.43;;
34060;SDS011;20336;-33.424;-70.638;2022-07-03T06:26:05;21.40;;;11.20;;
34060;SDS011;20336;-33.424;-70.638;2022-07-03T06:28:31;19.27;;;11.23;;
34060;SDS011;20336;-33.424;-70.638;2022-07-03T06:30:58;17.63;;;10.50;;
34060;SDS011;20336;-33.424;-70.638;2022-07-03T06:33:25;18.13;;;11.00;;
34060;SDS011;20336;-33.424;-70.638;2022-07-03T06:35:52;20.50;;;11.57;;
34060;SDS011;20336;-33.424;-70.638;2022-07-03T06:38:19;18.07;;;12.20;;
34060;SDS011;20336;-33.424;-70.638;2022-07-03T06:40:46;19.23;;;11.90;;
34060;SDS011;20336;-33.424;-70.638;2022-07-03T06:43:12;18.93;;;12.30;;
34060;SDS011;20336;-33.424;-70.638;2022-07-03T06:45:39;21.30;;;12.63;;
34060;SDS011;20336;-33.424;-70.638;2022-07-03T06:48:06;22.43;;;12.27;;
34060;SDS011;20336;-33.424;-70.638;2022-07-03T06:50:33;20.37;;;12.97;;
34060;SDS011;20336;-33.424;-70.638;2022-07-03T06:53:00;23.23;;;13.93;;
34060;SDS011;20336;-33.424;-70.638;2022-07-03T06:55:27;18.67;;;11.57;;
34060;SDS011;20336;-33.424;-70.638;2022-07-03T06:57:53;25.37;;;14.63;;
34060;SDS011;20336;-33.424;-70.638;2022-07-03T07:00:20;18.87;;;12.77;;
34060;SDS011;20336;-33.424;-70.638;2022-07-03T07:02:47;21.80;;;13.73;;
34060;SDS011;20336;-33.424;-70.638;2022-07-03T07:05:14;22.47;;;14.20;;
34060;SDS011;20336;-33.424;-70.638;2022-07-03T07:07:40;24.77;;;14.00;;
34060;SDS011;20336;-33.424;-70.638;2022-07-03T07:10:07;24.73;;;14.10;;
34060;SDS011;20336;-33.424;-70.638;2022-07-03T07:12:35;30.17;;;14.80;;
34060;SDS011;20336;-33.424;-70.638;2022-07-03T07:15:01;20.93;;;13.27;;
34060;SDS011;20336;-33.424;-70.638;2022-07-03T07:17:28;22.80;;;13.57;;
34060;SDS011;20336;-33.424;-70.638;2022-07-03T07:19:55;22.90;;;14.03;;
34060;SDS011;20336;-33.424;-70.638;2022-07-03T07:22:22;22.83;;;14.27;;
34060;SDS011;20336;-33.424;-70.638;2022-07-03T07:24:51;24.47;;;14.30;;
34060;SDS011;20336;-33.424;-70.638;2022-07-03T07:27:18;22.73;;;13.93;;
34060;SDS011;20336;-33.424;-70.638;2022-07-03T07:29:45;25.77;;;15.67;;
34060;SDS011;20336;-33.424;-70.638;2022-07-03T07:32:12;25.83;;;15.43;;
34060;SDS011;20336;-33.424;-70.638;2022-07-03T07:34:38;21.63;;;13.20;;
34060;SDS011;20336;-33.424;-70.638;2022-07-03T07:37:05;25.63;;;13.43;;
34060;SDS011;20336;-33.424;-70.638;2022-07-03T07:39:32;20.40;;;12.73;;
34060;SDS011;20336;-33.424;-70.638;2022-07-03T07:41:59;18.90;;;11.57;;
34060;SDS011;20336;-33.424;-70.638;2022-07-03T07:44:26;21.63;;;14.13;;
34060;SDS011;20336;-33.424;-70.638;2022-07-03T07:46:53;22.30;;;13.60;;
34060;SDS011;20336;-33.424;-70.638;2022-07-03T07:49:19;19.73;;;11.97;;
34060;SDS011;20336;-33.424;-70.638;2022-07-03T07:51:46;19.93;;;12.13;;
34060;SDS011;20336;-33.424;-70.638;2022-07-03T07:54:16;24.87;;;15.03;;
34060;SDS011;20336;-33.424;-70.638;2022-07-03T07:56:43;24.47;;;15.10;;
34060;SDS011;20336;-33.424;-70.638;2022-07-03T07:59:10;27.67;;;15.40;;
34060;SDS011;20336;-33.424;-70.638;2022-07-03T08:01:36;26.00;;;16.53;;
34060;SDS011;20336;-33.424;-70.638;2022-07-03T08:04:21;29.90;;;16.50;;
34060;SDS011;20336;-33.424;-70.638;2022-07-03T08:07:06;28.77;;;16.17;;
34060;SDS011;20336;-33.424;-70.638;2022-07-03T08:09:33;29.87;;;16.53;;
34060;SDS011;20336;-33.424;-70.638;2022-07-03T08:12:00;24.23;;;16.03;;
34060;SDS011;20336;-33.424;-70.638;2022-07-03T08:14:27;34.27;;;19.40;;
34060;SDS011;20336;-33.424;-70.638;2022-07-03T08:16:53;31.67;;;18.17;;
34060;SDS011;20336;-33.424;-70.638;2022-07-03T08:19:20;27.50;;;18.10;;
34060;SDS011;20336;-33.424;-70.638;2022-07-03T08:21:47;33.47;;;21.03;;
34060;SDS011;20336;-33.424;-70.638;2022-07-03T08:24:14;33.73;;;19.60;;
34060;SDS011;20336;-33.424;-70.638;2022-07-03T08:26:41;28.10;;;18.33;;
34060;SDS011;20336;-33.424;-70.638;2022-07-03T08:29:08;30.77;;;18.33;;
34060;SDS011;20336;-33.424;-70.638;2022-07-03T08:31:35;34.30;;;18.23;;
34060;SDS011;20336;-33.424;-70.638;2022-07-03T08:34:02;27.73;;;17.77;;
34060;SDS011;20336;-33.424;-70.638;2022-07-03T08:36:29;26.10;;;17.60;;
34060;SDS011;20336;-33.424;-70.638;2022-07-03T08:38:55;29.00;;;18.07;;
34060;SDS011;20336;-33.424;-70.638;2022-07-03T08:41:22;26.77;;;17.33;;
34060;SDS011;20336;-33.424;-70.638;2022-07-03T08:43:50;27.73;;;17.43;;
34060;SDS011;20336;-33.424;-70.638;2022-07-03T08:46:17;31.63;;;17.27;;
34060;SDS011;20336;-33.424;-70.638;2022-07-03T08:48:45;29.73;;;19.23;;
34060;SDS011;20336;-33.424;-70.638;2022-07-03T08:51:15;26.50;;;17.20;;
34060;SDS011;20336;-33.424;-70.638;2022-07-03T08:53:44;27.07;;;17.77;;
34060;SDS011;20336;-33.424;-70.638;2022-07-03T08:56:13;32.93;;;19.97;;
34060;SDS011;20336;-33.424;-70.638;2022-07-03T08:58:40;28.83;;;19.57;;
34060;SDS011;20336;-33.424;-70.638;2022-07-03T09:01:08;34.47;;;20.70;;
34060;SDS011;20336;-33.424;-70.638;2022-07-03T09:03:35;31.70;;;20.50;;
34060;SDS011;20336;-33.424;-70.638;2022-07-03T09:06:03;28.37;;;19.23;;
34060;SDS011;20336;-33.424;-70.638;2022-07-03T09:08:30;27.67;;;18.53;;
34060;SDS011;20336;-33.424;-70.638;2022-07-03T09:10:59;28.17;;;18.93;;
34060;SDS011;20336;-33.424;-70.638;2022-07-03T09:13:27;30.50;;;19.83;;
34060;SDS011;20336;-33.424;-70.638;2022-07-03T09:15:54;27.77;;;18.30;;
34060;SDS011;20336;-33.424;-70.638;2022-07-03T09:18:37;26.20;;;17.70;;
34060;SDS011;20336;-33.424;-70.638;2022-07-03T09:21:08;24.37;;;16.67;;
34060;SDS011;20336;-33.424;-70.638;2022-07-03T09:23:36;38.93;;;19.67;;
34060;SDS011;20336;-33.424;-70.638;2022-07-03T09:26:05;30.57;;;19.83;;
34060;SDS011;20336;-33.424;-70.638;2022-07-03T09:28:42;35.70;;;21.83;;
34060;SDS011;20336;-33.424;-70.638;2022-07-03T09:31:12;31.37;;;20.27;;
34060;SDS011;20336;-33.424;-70.638;2022-07-03T09:33:50;36.30;;;21.30;;
34060;SDS011;20336;-33.424;-70.638;2022-07-03T09:42:01;37.07;;;21.57;;
34060;SDS011;20336;-33.424;-70.638;2022-07-03T09:44:36;31.27;;;19.97;;
34060;SDS011;20336;-33.424;-70.638;2022-07-03T09:47:08;35.93;;;20.10;;
34060;SDS011;20336;-33.424;-70.638;2022-07-03T09:49:46;31.30;;;18.90;;
34060;SDS011;20336;-33.424;-70.638;2022-07-03T09:52:26;31.90;;;19.73;;
34060;SDS011;20336;-33.424;-70.638;2022-07-03T09:54:56;29.10;;;18.27;;
34060;SDS011;20336;-33.424;-70.638;2022-07-03T09:57:29;31.53;;;19.53;;
34060;SDS011;20336;-33.424;-70.638;2022-07-03T10:02:56;30.10;;;18.60;;
34060;SDS011;20336;-33.424;-70.638;2022-07-03T10:05:28;41.93;;;20.87;;
34060;SDS011;20336;-33.424;-70.638;2022-07-03T10:07:59;35.37;;;21.57;;
34060;SDS011;20336;-33.424;-70.638;2022-07-03T10:10:28;31.47;;;20.03;;
34060;SDS011;20336;-33.424;-70.638;2022-07-03T10:13:02;42.27;;;23.80;;
34060;SDS011;20336;-33.424;-70.638;2022-07-03T10:15:31;32.27;;;19.00;;
34060;SDS011;20336;-33.424;-70.638;2022-07-03T10:18:09;45.43;;;21.27;;
34060;SDS011;20336;-33.424;-70.638;2022-07-03T10:20:42;29.83;;;16.93;;
34060;SDS011;20336;-33.424;-70.638;2022-07-03T10:23:14;25.43;;;16.33;;
34060;SDS011;20336;-33.424;-70.638;2022-07-03T10:25:42;30.23;;;17.53;;
34060;SDS011;20336;-33.424;-70.638;2022-07-03T10:28:11;24.97;;;16.77;;
34060;SDS011;20336;-33.424;-70.638;2022-07-03T10:30:39;25.40;;;16.23;;
34060;SDS011;20336;-33.424;-70.638;2022-07-03T10:33:10;26.87;;;16.50;;
34060;SDS011;20336;-33.424;-70.638;2022-07-03T10:35:40;28.40;;;17.80;;
34060;SDS011;20336;-33.424;-70.638;2022-07-03T10:38:23;30.67;;;18.07;;
34060;SDS011;20336;-33.424;-70.638;2022-07-03T10:44:08;42.07;;;21.63;;
34060;SDS011;20336;-33.424;-70.638;2022-07-03T10:46:53;37.43;;;22.07;;
34060;SDS011;20336;-33.424;-70.638;2022-07-03T10:49:20;41.23;;;24.37;;
34060;SDS011;20336;-33.424;-70.638;2022-07-03T10:54:29;39.93;;;24.53;;
34060;SDS011;20336;-33.424;-70.638;2022-07-03T11:15:29;47.87;;;31.57;;
34060;SDS011;20336;-33.424;-70.638;2022-07-03T11:18:17;43.93;;;29.40;;
34060;SDS011;20336;-33.424;-70.638;2022-07-03T11:21:02;42.80;;;27.03;;
34060;SDS011;20336;-33.424;-70.638;2022-07-03T11:24:03;44.13;;;25.73;;
34060;SDS011;20336;-33.424;-70.638;2022-07-03T11:26:33;45.97;;;26.63;;
34060;SDS011;20336;-33.424;-70.638;2022-07-03T11:29:00;43.17;;;26.33;;
34060;SDS011;20336;-33.424;-70.638;2022-07-03T11:31:27;42.03;;;25.37;;
34060;SDS011;20336;-33.424;-70.638;2022-07-03T11:36:23;37.20;;;23.23;;
34060;SDS011;20336;-33.424;-70.638;2022-07-03T11:41:21;40.93;;;22.93;;
34060;SDS011;20336;-33.424;-70.638;2022-07-03T11:43:49;36.63;;;20.33;;
34060;SDS011;20336;-33.424;-70.638;2022-07-03T11:46:23;32.13;;;20.10;;
34060;SDS011;20336;-33.424;-70.638;2022-07-03T11:49:13;35.07;;;21.13;;
34060;SDS011;20336;-33.424;-70.638;2022-07-03T11:51:42;33.67;;;20.47;;
34060;SDS011;20336;-33.424;-70.638;2022-07-03T11:54:48;30.00;;;19.17;;
34060;SDS011;20336;-33.424;-70.638;2022-07-03T11:57:16;31.40;;;19.60;;
34060;SDS011;20336;-33.424;-70.638;2022-07-03T11:59:43;31.93;;;19.17;;
34060;SDS011;20336;-33.424;-70.638;2022-07-03T12:02:10;35.70;;;20.30;;
34060;SDS011;20336;-33.424;-70.638;2022-07-03T12:04:38;29.23;;;18.57;;
34060;SDS011;20336;-33.424;-70.638;2022-07-03T12:07:06;29.90;;;19.50;;
34060;SDS011;20336;-33.424;-70.638;2022-07-03T12:09:33;28.70;;;18.87;;
34060;SDS011;20336;-33.424;-70.638;2022-07-03T12:12:08;32.30;;;19.23;;
34060;SDS011;20336;-33.424;-70.638;2022-07-03T12:14:43;31.47;;;19.50;;
34060;SDS011;20336;-33.424;-70.638;2022-07-03T12:17:17;29.17;;;18.80;;
34060;SDS011;20336;-33.424;-70.638;2022-07-03T12:19:46;34.23;;;19.93;;
34060;SDS011;20336;-33.424;-70.638;2022-07-03T12:24:55;31.17;;;20.07;;
34060;SDS011;20336;-33.424;-70.638;2022-07-03T12:27:24;29.77;;;18.23;;
34060;SDS011;20336;-33.424;-70.638;2022-07-03T12:29:51;31.33;;;18.67;;
34060;SDS011;20336;-33.424;-70.638;2022-07-03T12:32:18;30.47;;;18.40;;
34060;SDS011;20336;-33.424;-70.638;2022-07-03T12:34:45;35.40;;;20.07;;
34060;SDS011;20336;-33.424;-70.638;2022-07-03T12:37:12;35.17;;;21.83;;
34060;SDS011;20336;-33.424;-70.638;2022-07-03T12:39:43;33.90;;;18.87;;
34060;SDS011;20336;-33.424;-70.638;2022-07-03T12:42:21;30.67;;;17.77;;
34060;SDS011;20336;-33.424;-70.638;2022-07-03T12:44:58;27.33;;;18.07;;
34060;SDS011;20336;-33.424;-70.638;2022-07-03T12:47:27;30.13;;;17.93;;
34060;SDS011;20336;-33.424;-70.638;2022-07-03T12:49:58;29.90;;;17.60;;
34060;SDS011;20336;-33.424;-70.638;2022-07-03T12:52:30;27.43;;;17.00;;
34060;SDS011;20336;-33.424;-70.638;2022-07-03T12:54:58;31.20;;;17.10;;
34060;SDS011;20336;-33.424;-70.638;2022-07-03T12:57:26;34.07;;;21.30;;
34060;SDS011;20336;-33.424;-70.638;2022-07-03T13:00:12;34.67;;;20.10;;
34060;SDS011;20336;-33.424;-70.638;2022-07-03T13:02:46;37.30;;;20.53;;
34060;SDS011;20336;-33.424;-70.638;2022-07-03T13:07:45;32.47;;;19.23;;
34060;SDS011;20336;-33.424;-70.638;2022-07-03T13:10:14;29.40;;;18.83;;
34060;SDS011;20336;-33.424;-70.638;2022-07-03T13:12:52;33.67;;;19.47;;
34060;SDS011;20336;-33.424;-70.638;2022-07-03T13:15:23;38.23;;;21.70;;
34060;SDS011;20336;-33.424;-70.638;2022-07-03T13:22:52;38.30;;;19.87;;
34060;SDS011;20336;-33.424;-70.638;2022-07-03T13:25:20;33.33;;;19.03;;
34060;SDS011;20336;-33.424;-70.638;2022-07-03T13:27:46;29.97;;;19.80;;
34060;SDS011;20336;-33.424;-70.638;2022-07-03T13:30:17;35.47;;;19.93;;
34060;SDS011;20336;-33.424;-70.638;2022-07-03T13:32:45;28.00;;;18.70;;
34060;SDS011;20336;-33.424;-70.638;2022-07-03T13:35:12;29.90;;;18.80;;
34060;SDS011;20336;-33.424;-70.638;2022-07-03T13:37:39;32.40;;;19.37;;
34060;SDS011;20336;-33.424;-70.638;2022-07-03T13:40:05;31.47;;;18.03;;
34060;SDS011;20336;-33.424;-70.638;2022-07-03T13:42:33;26.83;;;17.20;;
34060;SDS011;20336;-33.424;-70.638;2022-07-03T13:45:00;27.93;;;18.80;;
34060;SDS011;20336;-33.424;-70.638;2022-07-03T13:47:27;35.43;;;19.63;;
34060;SDS011;20336;-33.424;-70.638;2022-07-03T13:49:54;36.30;;;21.43;;
34060;SDS011;20336;-33.424;-70.638;2022-07-03T13:52:21;30.87;;;19.00;;
34060;SDS011;20336;-33.424;-70.638;2022-07-03T13:54:48;35.50;;;20.63;;
34060;SDS011;20336;-33.424;-70.638;2022-07-03T13:57:14;35.43;;;19.40;;
34060;SDS011;20336;-33.424;-70.638;2022-07-03T13:59:41;34.97;;;19.83;;
34060;SDS011;20336;-33.424;-70.638;2022-07-03T14:02:08;39.70;;;20.43;;
34060;SDS011;20336;-33.424;-70.638;2022-07-03T14:04:35;34.30;;;19.27;;
34060;SDS011;20336;-33.424;-70.638;2022-07-03T14:07:02;34.87;;;20.17;;
34060;SDS011;20336;-33.424;-70.638;2022-07-03T14:09:29;53.90;;;21.70;;
34060;SDS011;20336;-33.424;-70.638;2022-07-03T14:11:56;40.00;;;21.53;;
34060;SDS011;20336;-33.424;-70.638;2022-07-03T14:14:23;39.23;;;20.70;;
34060;SDS011;20336;-33.424;-70.638;2022-07-03T14:16:49;39.43;;;21.30;;
34060;SDS011;20336;-33.424;-70.638;2022-07-03T14:19:16;42.33;;;20.43;;
34060;SDS011;20336;-33.424;-70.638;2022-07-03T14:21:44;39.57;;;20.20;;
34060;SDS011;20336;-33.424;-70.638;2022-07-03T14:24:11;39.13;;;20.17;;
34060;SDS011;20336;-33.424;-70.638;2022-07-03T14:26:37;36.47;;;21.20;;
34060;SDS011;20336;-33.424;-70.638;2022-07-03T14:29:23;39.07;;;20.63;;
34060;SDS011;20336;-33.424;-70.638;2022-07-03T14:32:07;34.67;;;21.00;;
34060;SDS011;20336;-33.424;-70.638;2022-07-03T14:34:53;35.23;;;20.20;;
34060;SDS011;20336;-33.424;-70.638;2022-07-03T14:37:20;27.43;;;19.10;;
34060;SDS011;20336;-33.424;-70.638;2022-07-03T14:39:47;36.13;;;19.53;;
34060;SDS011;20336;-33.424;-70.638;2022-07-03T14:42:15;40.50;;;21.30;;
34060;SDS011;20336;-33.424;-70.638;2022-07-03T14:44:42;37.40;;;21.00;;
34060;SDS011;20336;-33.424;-70.638;2022-07-03T14:47:09;35.80;;;19.63;;
34060;SDS011;20336;-33.424;-70.638;2022-07-03T14:49:36;36.80;;;19.83;;
34060;SDS011;20336;-33.424;-70.638;2022-07-03T14:52:04;34.50;;;20.47;;
34060;SDS011;20336;-33.424;-70.638;2022-07-03T14:54:32;34.37;;;20.77;;
34060;SDS011;20336;-33.424;-70.638;2022-07-03T14:57:06;38.13;;;22.43;;
34060;SDS011;20336;-33.424;-70.638;2022-07-03T14:59:47;42.53;;;22.37;;
34060;SDS011;20336;-33.424;-70.638;2022-07-03T15:02:30;43.13;;;22.63;;
34060;SDS011;20336;-33.424;-70.638;2022-07-03T15:05:08;46.70;;;24.50;;
34060;SDS011;20336;-33.424;-70.638;2022-07-03T15:10:15;38.27;;;23.30;;
34060;SDS011;20336;-33.424;-70.638;2022-07-03T15:12:47;37.57;;;23.77;;
34060;SDS011;20336;-33.424;-70.638;2022-07-03T15:15:18;41.10;;;23.47;;
34060;SDS011;20336;-33.424;-70.638;2022-07-03T15:17:50;38.03;;;23.30;;
34060;SDS011;20336;-33.424;-70.638;2022-07-03T15:20:18;43.87;;;24.70;;
34060;SDS011;20336;-33.424;-70.638;2022-07-03T15:22:47;45.30;;;25.17;;
34060;SDS011;20336;-33.424;-70.638;2022-07-03T15:25:16;45.27;;;25.57;;